GMATGMFF

Guest
Details From GMAT - PLAGE BLANCHE
To GMFF - SAISS
Flight Number -
Tags generated
Created
Modified
Stats Distance 459 nm / 849 km
Max Altitude 35,000 ft / 10,668 m
Waypoints 7
Social Downloads 0
Likes 0
Share VATSIM

Download

Looking for another format? Having issues loading an existing format? Contact us
Advertisement - Login to hide

Notes

Basic altitude profile: - Ascent Rate: 2500ft/min - Ascent Speed: 250kts - Cruise Altitude: 35000ft - Cruise Speed: 420kts - Descent Rate: 1500ft/min - Descent Speed: 250kts Options: - Use NATs: yes - Use PACOTS: yes - Use low airways: yes - Use high airways: yes

Route

GMAT AMLOK A600 ADM UG850 ERLAM GMFF

ID Type Via Altitude Latitude Longitude Leg Dist Tot Dist Heading (true) Name
O GMAT APT - 0 ft / 0 m 28.44821˚ -11.16135˚ - 0 nm - PLAGE BLANCHE
AMLOK FIX - 35,000 ft / 10,668 m 29.81667˚ -10.02250˚ 101 nm 101 nm 36° / 36° -
TEKNA FIX A600 (AWY-LO) 23,500 ft / 7,163 m 30.03917˚ -9.73833˚ 19 nm 121 nm 48° / 48° -
ADM VOR A600 (AWY-LO) 23,500 ft / 7,163 m 30.32194˚ -9.38333˚ 25 nm 146 nm 47° / 47° AGADIR VOR-DME
MAK VOR UG850 (AWY-HI) 35,000 ft / 10,668 m 31.61278˚ -8.10306˚ 101 nm 248 nm 40° / 41° MARRAKECH VOR-DME
ERLAM FIX UG850 (AWY-HI) 23,500 ft / 7,163 m 32.91917˚ -6.39000˚ 117 nm 365 nm 47° / 48° -
O GMFF APT - 0 ft / 0 m 33.92733˚ -4.97793˚ 93 nm 458 nm 49° / 50° SAISS

Altitude Profile

Advertisement - Login to hide

Weather


0- 5 10 15 20 25 30 35+ Temperature / ° C

Clouds and Precipitation
Forecast for 2017-12-16 18:00 UTC. Updated 2 hours ago

Ground ~20,000 ft ~40,000 ft Winds

GMAT

Details ICAO GMAT (TTA)
Name PLAGE BLANCHE
Region Morocco
Timezone Africa/Casablanca (UTC+0.0)
Stats Elevation 653 ft / 199 m (AMSL)
Location 28.448206° -11.161350°
Runways 1
Magnetic Variation 3.155° W

METAR

GMAT 161600Z 34010KT 6000 -RA OVC016 17/16 Q1018 NOSIG

Decode

TAF

Not found

Departure Runways

ID Width Length Bearing (true) Bearing (mag) Surface Threshold Offset Overrun Length
03 98 ft / 30 m 6,585 ft / 2,007 m 27.69° 30.84° Asphalt 0 ft / 0 m 0 ft / 0 m
21 98 ft / 30 m 6,585 ft / 2,007 m 207.70° 210.85° Asphalt 0 ft / 0 m 0 ft / 0 m

GMFF

Details ICAO GMFF (FEZ)
Name SAISS
Region Morocco
Timezone Africa/Casablanca (UTC+0.0)
Stats Elevation 1,900 ft / 579 m (AMSL)
Location 33.927327° -4.977931°
Runways 1
Magnetic Variation 1.032° W

METAR

GMFF 161630Z 32008KT 0100 0050SE R27/0100V0125N R09/0075V0150N FG BKN002 BKN023 12/12 Q1019 TEMPO RA M2M3

Decode

TAF

TAF GMFF 161100Z 1612/1718 28012KT 8000 SCT016 BKN030 TEMPO 1612/1620 RA BECMG 1621/1701 22006KT BECMG 1710/1714 06010KT CAVOK

Decode

Destination Runways

ID Width Length Bearing (true) Bearing (mag) Surface Threshold Offset Overrun Length
09 148 ft / 45 m 10,461 ft / 3,189 m 90.26° 91.29° Asphalt 0 ft / 0 m 197 ft / 60 m
27 148 ft / 45 m 10,461 ft / 3,189 m 270.28° 271.31° Asphalt 820 ft / 250 m 0 ft / 0 m